Time;durP1;ratioP1;P1;durP2;ratioP2;P2;SDS_P1;SDS_P2;PMS_P1;PMS_P2;Temp;Humidity;BMP_temperature;BMP_pressure;BME280_temperature;BME280_humidity;BME280_pressure;Samples;Min_cycle;Max_cycle;Signal;HPM_P1;HPM_P2
2021/06/20 00:03:59;;;;;;;11.00;6.07;;;16.70;92.30;;;;;;5833700;40;20673;-83
2021/06/20 00:08:03;;;;;;;12.13;6.25;;;17.10;92.60;;;;;;5844918;40;20040;-83
2021/06/20 00:12:06;;;;;;;11.20;5.95;;;16.70;92.80;;;;;;5830437;40;20095;-82
2021/06/20 00:16:08;;;;;;;9.50;5.60;;;16.80;92.70;;;;;;5832777;40;20052;-82
2021/06/20 00:20:12;;;;;;;11.57;6.50;;;16.80;93.20;;;;;;5826372;40;21201;-84
2021/06/20 00:24:14;;;;;;;11.90;6.97;;;16.60;93.30;;;;;;5841560;40;20863;-83
2021/06/20 00:28:16;;;;;;;;;;;16.50;93.20;;;;;;5847446;40;20705;-81
2021/06/20 00:32:18;;;;;;;10.43;6.40;;;16.40;96.10;;;;;;5833800;40;19935;-83
2021/06/20 00:36:20;;;;;;;;;;;16.40;93.50;;;;;;5848285;40;20037;-82
2021/06/20 00:40:23;;;;;;;10.85;6.57;;;17.60;97.30;;;;;;5831203;40;19938;-81
2021/06/20 00:44:25;;;;;;;9.88;6.43;;;17.20;94.60;;;;;;5830975;40;20048;-82
2021/06/20 00:48:27;;;;;;;11.68;6.78;;;16.10;94.40;;;;;;5833207;40;20036;-83
2021/06/20 00:52:29;;;;;;;10.07;6.85;;;16.90;94.50;;;;;;5834924;40;20036;-83
2021/06/20 00:56:33;;;;;;;12.68;6.78;;;16.10;94.40;;;;;;5833927;40;20100;-83
2021/06/20 01:00:36;;;;;;;12.18;6.50;;;17.70;94.80;;;;;;5832665;40;20039;-84
2021/06/20 01:04:40;;;;;;;14.25;7.05;;;16.90;94.60;;;;;;5848554;40;20047;-82
2021/06/20 01:08:42;;;;;;;12.55;7.15;;;16.70;94.80;;;;;;5848032;40;20046;-83
2021/06/20 01:12:44;;;;;;;13.45;7.35;;;16.10;94.60;;;;;;5835463;40;20040;-82
2021/06/20 01:16:46;;;;;;;;;;;16.10;94.70;;;;;;5837871;40;20663;-83
2021/06/20 01:20:53;;;;;;;12.07;7.28;;;18.10;98.30;;;;;;5835982;40;20682;-82
2021/06/20 01:24:55;;;;;;;;;;;15.80;95.30;;;;;;5853554;40;20609;-82
2021/06/20 01:29:05;;;;;;;11.23;8.07;;;17.60;98.90;;;;;;5837000;40;19930;-83
2021/06/20 01:33:09;;;;;;;12.20;8.07;;;16.20;95.90;;;;;;5841913;40;20041;-82
2021/06/20 01:37:15;;;;;;;17.20;8.48;;;17.20;96.30;;;;;;5833896;40;20032;-83
2021/06/20 01:41:17;;;;;;;14.60;9.10;;;17.20;96.50;;;;;;5848726;40;20044;-79
2021/06/20 01:45:21;;;;;;;18.15;9.48;;;15.50;96.10;;;;;;5851180;40;20861;-80
2021/06/20 01:49:24;;;;;;;17.77;9.13;;;15.50;96.40;;;;;;5851305;40;20035;-81
2021/06/20 01:53:26;;;;;;;16.42;9.27;;;15.70;96.70;;;;;;5852157;40;20032;-83
2021/06/20 01:57:32;;;;;;;;;;;15.50;96.50;;;;;;5854169;40;20039;-81
2021/06/20 02:01:34;;;;;;;17.20;9.85;;;15.50;99.90;;;;;;5841735;40;19943;-83
2021/06/20 02:05:38;;;;;;;20.10;10.07;;;15.30;96.90;;;;;;5832903;40;20064;-83
2021/06/20 02:09:40;;;;;;;18.67;9.35;;;16.80;98.00;;;;;;5829209;40;20047;-83
2021/06/20 02:13:42;;;;;;;;;;;17.30;98.10;;;;;;5831440;40;20637;-82
2021/06/20 02:17:47;;;;;;;18.40;8.73;;;15.50;99.90;;;;;;5830230;40;19990;-82
2021/06/20 02:21:49;;;;;;;14.93;8.43;;;16.30;98.10;;;;;;5834345;40;20055;-82
2021/06/20 02:25:51;;;;;;;22.05;8.90;;;15.50;97.40;;;;;;5832828;40;20767;-81
2021/06/20 02:29:55;;;;;;;18.27;9.25;;;16.10;97.80;;;;;;5847409;40;20032;-80
2021/06/20 02:33:57;;;;;;;15.77;8.52;;;16.40;98.10;;;;;;5830059;40;20052;-78
2021/06/20 02:38:00;;;;;;;17.35;7.65;;;15.50;98.00;;;;;;5830788;40;20035;-80
2021/06/20 02:42:02;;;;;;;;;;;17.40;98.80;;;;;;5844265;40;20059;-83
2021/06/20 02:46:04;;;;;;;14.60;8.02;;;15.70;99.90;;;;;;5869119;23;20377;-83
2021/06/20 02:50:08;;;;;;;15.35;8.75;;;15.50;99.10;;;;;;5826827;40;20063;-84
2021/06/20 02:54:11;;;;;;;16.67;8.13;;;15.80;99.40;;;;;;5809754;40;20043;-82
2021/06/20 02:58:12;;;;;;;15.90;8.75;;;16.50;99.60;;;;;;5826320;40;20040;-84
2021/06/20 03:02:15;;;;;;;16.55;9.63;;;17.20;99.80;;;;;;5818523;40;20044;-85
2021/06/20 03:06:17;;;;;;;15.55;9.25;;;16.50;99.90;;;;;;5815644;40;20059;-81
2021/06/20 03:10:19;;;;;;;21.40;11.10;;;17.00;99.90;;;;;;5821078;40;20036;-82
2021/06/20 03:14:21;;;;;;;18.17;9.40;;;15.90;99.60;;;;;;5834108;40;20059;-83
2021/06/20 03:18:23;;;;;;;19.10;9.98;;;16.00;99.90;;;;;;5838336;40;20440;-82
2021/06/20 03:22:36;;;;;;;17.83;9.68;;;16.00;99.90;;;;;;5885594;23;20152;-81
2021/06/20 03:26:38;;;;;;;18.92;9.40;;;16.10;99.90;;;;;;5821917;40;20132;-84
2021/06/20 03:30:40;;;;;;;14.25;7.20;;;16.20;99.90;;;;;;5809729;40;20044;-80
2021/06/20 03:34:42;;;;;;;20.95;10.68;;;16.20;99.90;;;;;;5810416;40;20429;-84
2021/06/20 03:38:45;;;;;;;16.58;10.32;;;16.40;99.90;;;;;;5817487;40;20048;-82
2021/06/20 03:42:48;;;;;;;21.80;10.95;;;16.40;99.90;;;;;;5812264;40;20044;-84
2021/06/20 03:46:49;;;;;;;25.08;10.65;;;17.30;99.90;;;;;;5819661;40;21144;-81
2021/06/20 03:50:51;;;;;;;;;;;16.90;99.90;;;;;;5807788;40;20064;-82
2021/06/20 03:54:53;;;;;;;21.00;10.40;;;16.60;99.90;;;;;;5794410;40;19942;-77
2021/06/20 03:58:55;;;;;;;;;;;16.60;99.90;;;;;;5804171;40;20059;-81
2021/06/20 04:02:57;;;;;;;17.13;8.50;;;16.70;99.90;;;;;;5810381;40;19951;-79
2021/06/20 04:06:59;;;;;;;22.15;10.38;;;16.70;99.90;;;;;;5803264;40;20966;-81
2021/06/20 04:11:01;;;;;;;19.02;10.98;;;16.70;99.90;;;;;;5803639;40;20072;-82
2021/06/20 04:15:03;;;;;;;17.38;9.18;;;16.70;99.90;;;;;;5798975;40;20153;-79
2021/06/20 04:19:05;;;;;;;24.77;11.45;;;16.80;99.90;;;;;;5799453;40;20436;-84
2021/06/20 04:23:08;;;;;;;22.17;12.27;;;18.40;99.90;;;;;;5806056;40;20117;-80
2021/06/20 04:27:10;;;;;;;21.70;13.05;;;16.10;99.90;;;;;;5802768;40;20668;-81
2021/06/20 04:31:13;;;;;;;25.48;12.70;;;16.90;99.90;;;;;;5801139;40;20441;-77
2021/06/20 04:35:15;;;;;;;20.63;14.00;;;16.90;99.90;;;;;;5800748;40;20052;-78
2021/06/20 04:39:18;;;;;;;20.08;12.48;;;16.90;99.90;;;;;;5809239;40;20050;-81
2021/06/20 04:43:26;;;;;;;23.23;12.18;;;16.90;99.90;;;;;;5797542;40;20152;-77
2021/06/20 04:47:29;;;;;;;19.92;11.63;;;17.80;99.90;;;;;;5805639;40;20152;-78
2021/06/20 04:51:34;;;;;;;20.70;14.43;;;17.00;99.90;;;;;;5806612;40;20038;-80
2021/06/20 04:55:35;;;;;;;16.27;10.95;;;17.00;99.90;;;;;;5804150;40;20067;-78
2021/06/20 04:59:37;;;;;;;16.98;11.70;;;17.00;99.90;;;;;;5804346;40;20057;-78
2021/06/20 05:03:39;;;;;;;17.85;10.15;;;17.10;99.90;;;;;;5809547;40;20036;-79
2021/06/20 05:07:41;;;;;;;19.08;9.38;;;17.10;99.90;;;;;;5806451;40;20138;-78
2021/06/20 05:11:43;;;;;;;18.17;11.30;;;17.20;99.90;;;;;;5796885;40;20067;-77
2021/06/20 05:15:45;;;;;;;15.18;10.80;;;17.20;99.90;;;;;;5806610;40;20356;-74
2021/06/20 05:19:46;;;;;;;17.80;11.30;;;17.30;99.90;;;;;;5803723;40;20583;-76
2021/06/20 05:23:51;;;;;;;18.92;13.98;;;17.30;99.90;;;;;;5800220;40;20370;-80
2021/06/20 05:27:52;;;;;;;18.30;12.27;;;17.50;99.90;;;;;;5800250;40;20132;-79
2021/06/20 05:31:54;;;;;;;23.30;15.50;;;17.60;99.90;;;;;;5802965;40;20055;-81
2021/06/20 05:35:56;;;;;;;;;;;18.40;99.90;;;;;;5809866;40;20048;-78
2021/06/20 05:39:58;;;;;;;22.93;16.57;;;17.60;99.90;;;;;;5803000;40;20310;-78
2021/06/20 05:44:00;;;;;;;21.60;16.13;;;17.60;99.90;;;;;;5807988;40;20477;-77
2021/06/20 05:48:02;;;;;;;23.75;17.45;;;17.70;99.90;;;;;;5811020;40;20578;-76
2021/06/20 05:52:05;;;;;;;29.83;19.02;;;17.80;99.90;;;;;;5794295;40;20056;-74
2021/06/20 05:56:06;;;;;;;;;;;17.80;99.90;;;;;;5791250;40;20465;-74
2021/06/20 06:00:11;;;;;;;24.88;16.20;;;17.80;99.90;;;;;;5791038;40;20023;-73
2021/06/20 06:04:13;;;;;;;25.48;16.35;;;17.80;99.90;;;;;;5793970;40;20044;-74
2021/06/20 06:08:15;;;;;;;22.88;16.13;;;17.70;99.90;;;;;;5791207;40;20080;-74
2021/06/20 06:12:23;;;;;;;20.73;14.73;;;17.70;99.90;;;;;;5794320;40;20418;-75
2021/06/20 06:16:25;;;;;;;19.80;15.15;;;17.60;99.90;;;;;;5794078;40;20052;-75
2021/06/20 06:20:28;;;;;;;21.45;12.95;;;17.50;99.90;;;;;;5793142;40;20086;-74
2021/06/20 06:24:30;;;;;;;18.35;11.77;;;17.60;99.90;;;;;;5796436;40;20048;-74
2021/06/20 06:28:32;;;;;;;;;;;17.60;99.90;;;;;;5794240;40;20199;-76
2021/06/20 06:32:33;;;;;;;16.40;11.55;;;17.60;99.90;;;;;;5792827;40;19998;-77
2021/06/20 06:36:37;;;;;;;18.85;11.68;;;17.70;99.90;;;;;;5792465;40;20524;-78
2021/06/20 06:40:39;;;;;;;24.80;11.82;;;17.70;99.90;;;;;;5795350;40;20045;-75
2021/06/20 06:44:40;;;;;;;;;;;17.80;99.90;;;;;;5787351;40;20425;-77
2021/06/20 06:48:47;;;;;;;21.38;12.23;;;18.20;99.90;;;;;;5788589;40;19950;-78
2021/06/20 06:52:49;;;;;;;17.92;11.52;;;17.90;99.90;;;;;;5797015;40;20082;-74
2021/06/20 06:56:51;;;;;;;21.48;13.93;;;17.90;99.90;;;;;;5792794;40;20065;-77
2021/06/20 07:00:54;;;;;;;22.35;13.32;;;17.90;99.90;;;;;;5783506;40;20048;-76
2021/06/20 07:04:56;;;;;;;22.65;15.57;;;18.00;99.90;;;;;;5790998;40;20136;-76
2021/06/20 07:09:00;;;;;;;25.40;16.77;;;18.00;99.90;;;;;;5795887;40;20060;-77
2021/06/20 07:13:03;;;;;;;;;;;18.20;99.90;;;;;;5798159;40;20513;-76
2021/06/20 07:17:06;;;;;;;19.10;15.18;;;18.30;99.90;;;;;;5789811;40;20336;-75
2021/06/20 07:21:08;;;;;;;22.00;16.85;;;18.30;99.90;;;;;;5787340;40;20132;-76
2021/06/20 07:25:11;;;;;;;;;;;18.40;99.90;;;;;;5795087;40;20078;-76
2021/06/20 07:29:13;;;;;;;16.40;14.20;;;18.50;99.90;;;;;;5787652;40;19939;-77
2021/06/20 07:33:16;;;;;;;21.63;14.98;;;18.50;99.90;;;;;;5792522;40;20060;-75
2021/06/20 07:37:18;;;;;;;21.15;15.95;;;18.60;99.90;;;;;;5790311;40;20136;-76
2021/06/20 07:41:20;;;;;;;20.42;15.32;;;18.70;99.90;;;;;;5792416;40;20036;-78
2021/06/20 07:45:21;;;;;;;;;;;19.20;99.90;;;;;;5799919;40;20072;-76
2021/06/20 07:49:24;;;;;;;21.63;16.60;;;18.80;99.90;;;;;;5798920;40;19935;-77
2021/06/20 07:53:26;;;;;;;21.67;16.13;;;19.00;99.90;;;;;;5791918;40;20169;-79
2021/06/20 07:57:28;;;;;;;;;;;19.00;99.90;;;;;;5796532;40;20105;-79
2021/06/20 08:01:30;;;;;;;21.45;17.27;;;19.20;99.90;;;;;;5797510;40;19947;-77
2021/06/20 08:05:32;;;;;;;23.13;16.48;;;19.20;99.90;;;;;;5800976;40;20064;-78
2021/06/20 08:09:34;;;;;;;21.23;16.77;;;19.40;99.90;;;;;;5800096;40;21151;-77
2021/06/20 08:13:36;;;;;;;18.73;14.55;;;19.50;99.90;;;;;;5797374;40;20328;-77
2021/06/20 08:17:38;;;;;;;;;;;19.70;99.90;;;;;;5798509;40;20052;-79
2021/06/20 08:21:42;;;;;;;20.85;16.30;;;19.50;99.90;;;;;;5800380;40;20145;-78
2021/06/20 08:25:44;;;;;;;16.08;13.93;;;19.90;99.90;;;;;;5804288;40;20409;-78
2021/06/20 08:29:48;;;;;;;16.58;13.93;;;20.50;99.90;;;;;;5800308;40;20072;-79
2021/06/20 08:33:50;;;;;;;18.27;13.90;;;20.20;99.90;;;;;;5797780;40;20062;-78
2021/06/20 08:37:52;;;;;;;;;;;20.10;99.90;;;;;;5797714;40;20100;-78
2021/06/20 08:41:54;;;;;;;17.83;12.25;;;20.10;99.90;;;;;;5800947;40;20189;-78
2021/06/20 08:45:56;;;;;;;13.95;9.63;;;20.20;99.90;;;;;;5796470;40;20160;-78
2021/06/20 08:49:58;;;;;;;14.18;10.43;;;21.00;99.90;;;;;;5802870;40;20049;-78
2021/06/20 08:54:00;;;;;;;16.63;10.60;;;20.50;99.90;;;;;;5794144;40;20072;-78
2021/06/20 08:58:20;;;;;;;11.30;9.77;;;20.50;99.90;;;;;;5799884;40;20056;-79
2021/06/20 09:02:24;;;;;;;11.88;8.90;;;20.70;99.90;;;;;;5799814;40;20075;-78
2021/06/20 09:06:27;;;;;;;10.68;9.20;;;21.00;99.90;;;;;;5800977;40;20128;-77
2021/06/20 09:10:31;;;;;;;11.75;8.40;;;21.00;99.90;;;;;;5800699;40;20095;-79
2021/06/20 09:14:43;;;;;;;9.52;6.55;;;21.60;99.90;;;;;;5792896;40;20059;-79
2021/06/20 09:18:52;;;;;;;9.75;6.22;;;21.90;99.90;;;;;;5799574;40;20319;-74
2021/06/20 09:22:55;;;;;;;8.15;5.25;;;22.10;99.90;;;;;;5793849;40;20513;-77
2021/06/20 09:26:59;;;;;;;12.10;5.70;;;22.10;99.90;;;;;;5804760;40;20064;-78
2021/06/20 09:31:03;;;;;;;8.93;5.22;;;22.20;99.90;;;;;;5801934;40;20266;-78
2021/06/20 09:35:05;;;;;;;9.05;4.80;;;22.10;99.90;;;;;;5799469;40;20088;-78
2021/06/20 09:39:22;;;;;;;8.35;4.80;;;22.10;99.90;;;;;;5805349;40;20048;-78
2021/06/20 09:43:24;;;;;;;6.93;4.68;;;22.00;99.90;;;;;;5800614;40;20372;-78
2021/06/20 09:47:27;;;;;;;10.70;5.35;;;22.00;99.90;;;;;;5804222;40;20199;-78
2021/06/20 09:51:30;;;;;;;9.45;5.78;;;22.00;99.90;;;;;;5805594;40;20136;-78
2021/06/20 09:55:32;;;;;;;11.05;5.60;;;22.10;99.90;;;;;;5801570;40;20269;-78
2021/06/20 09:59:41;;;;;;;8.88;5.60;;;22.10;99.90;;;;;;5798995;40;20052;-75
2021/06/20 10:03:45;;;;;;;12.40;6.15;;;21.90;99.90;;;;;;5806936;40;20056;-78
2021/06/20 10:07:47;;;;;;;12.57;7.20;;;22.00;99.90;;;;;;5799948;40;20112;-78
2021/06/20 10:11:49;;;;;;;12.10;6.78;;;22.00;99.90;;;;;;5799696;40;20076;-77
2021/06/20 10:15:51;;;;;;;10.90;6.88;;;22.00;99.90;;;;;;5797022;40;20072;-78
2021/06/20 10:19:57;;;;;;;10.25;7.28;;;22.00;99.90;;;;;;5798300;40;20068;-78
2021/06/20 10:24:04;;;;;;;9.88;6.90;;;22.20;99.90;;;;;;5797676;40;21040;-78
2021/06/20 10:28:18;;;;;;;12.57;7.53;;;22.30;99.90;;;;;;5802723;40;20132;-77
2021/06/20 10:32:22;;;;;;;10.07;8.25;;;22.40;99.90;;;;;;5798951;40;20048;-78
2021/06/20 10:36:24;;;;;;;10.20;7.50;;;22.60;99.90;;;;;;5796942;40;20113;-78
2021/06/20 10:40:55;;;;;;;10.73;8.27;;;22.90;99.60;;;;;;5804445;40;20428;-76
2021/06/20 10:44:57;;;;;;;13.10;9.13;;;23.00;99.30;;;;;;5795143;40;20144;-77
2021/06/20 10:48:59;;;;;;;;;;;23.10;99.10;;;;;;5792718;40;20795;-79
2021/06/20 10:53:01;;;;;;;11.98;8.43;;;23.20;99.00;;;;;;5799245;40;19959;-75
2021/06/20 10:57:04;;;;;;;12.18;8.13;;;23.20;99.10;;;;;;5796549;40;20068;-79
2021/06/20 11:01:14;;;;;;;13.57;8.13;;;23.40;98.90;;;;;;5800627;40;20056;-75
2021/06/20 11:05:25;;;;;;;12.32;7.55;;;23.70;98.70;;;;;;5797069;40;20429;-77
2021/06/20 11:09:37;;;;;;;8.53;6.47;;;23.90;97.60;;;;;;5794038;40;20389;-78
2021/06/20 11:13:41;;;;;;;9.20;6.68;;;23.90;97.80;;;;;;5799820;40;20343;-76
2021/06/20 11:17:43;;;;;;;11.77;5.93;;;24.60;97.10;;;;;;5799240;40;20067;-77
2021/06/20 11:21:50;;;;;;;8.80;6.30;;;24.20;96.80;;;;;;5796262;40;20067;-76
2021/06/20 11:25:53;;;;;;;9.18;6.43;;;24.20;96.70;;;;;;5795093;40;20147;-75
2021/06/20 11:29:57;;;;;;;8.45;6.15;;;24.10;96.30;;;;;;5796115;40;20756;-77
2021/06/20 11:33:59;;;;;;;7.53;5.07;;;24.00;96.30;;;;;;5797489;40;20067;-76
2021/06/20 11:38:01;;;;;;;8.77;6.20;;;24.10;95.90;;;;;;5796753;40;20051;-75
2021/06/20 11:42:03;;;;;;;8.57;5.70;;;24.30;95.70;;;;;;5802465;40;20159;-75
2021/06/20 11:46:19;;;;;;;7.43;5.60;;;24.30;95.70;;;;;;5798199;40;20068;-77
2021/06/20 11:50:27;;;;;;;11.10;7.47;;;24.20;95.30;;;;;;5800772;40;20117;-78
2021/06/20 11:54:29;;;;;;;9.82;6.57;;;23.90;95.70;;;;;;5795688;40;20052;-77
2021/06/20 11:58:42;;;;;;;11.98;5.95;;;23.30;96.00;;;;;;5798419;40;20059;-77
2021/06/20 12:02:46;;;;;;;6.53;5.60;;;23.70;96.10;;;;;;5791235;40;20694;-79
2021/06/20 12:06:49;;;;;;;6.22;4.55;;;23.40;96.00;;;;;;5793360;40;20052;-76
2021/06/20 12:10:51;;;;;;;6.38;3.35;;;23.30;96.10;;;;;;5798651;40;20076;-76
2021/06/20 12:15:03;;;;;;;4.47;2.30;;;23.20;96.00;;;;;;5798729;40;20048;-76
2021/06/20 12:19:13;;;;;;;7.15;2.20;;;23.30;96.20;;;;;;5804721;40;20060;-80
2021/06/20 12:23:33;;;;;;;3.47;1.20;;;23.90;96.10;;;;;;5798961;40;20313;-77
2021/06/20 12:27:37;;;;;;;3.80;1.20;;;23.60;95.40;;;;;;5801050;40;20052;-78
2021/06/20 12:31:39;;;;;;;2.50;0.80;;;23.70;94.60;;;;;;5794313;40;20068;-80
2021/06/20 12:35:46;;;;;;;1.92;0.80;;;23.80;94.00;;;;;;5803124;40;20067;-81
2021/06/20 12:39:51;;;;;;;2.25;0.73;;;23.90;93.60;;;;;;5796829;40;20745;-78
2021/06/20 12:44:11;;;;;;;4.30;0.88;;;24.00;93.30;;;;;;5797268;40;20101;-76
2021/06/20 12:48:18;;;;;;;4.72;0.90;;;24.00;93.70;;;;;;5799815;40;20068;-78
2021/06/20 12:52:29;;;;;;;4.22;1.00;;;23.90;93.40;;;;;;5805394;40;20052;-77
2021/06/20 12:56:32;;;;;;;5.47;1.43;;;24.00;93.70;;;;;;5800601;40;20099;-80
2021/06/20 13:00:35;;;;;;;3.83;1.45;;;23.90;93.70;;;;;;5795316;40;20072;-75
2021/06/20 13:04:46;;;;;;;4.75;1.40;;;23.90;93.20;;;;;;5804534;40;20449;-79
2021/06/20 13:08:48;;;;;;;4.30;1.10;;;23.80;93.30;;;;;;5805191;40;20144;-80
2021/06/20 13:12:50;;;;;;;4.68;1.85;;;23.80;93.40;;;;;;5802357;40;20417;-81
2021/06/20 13:16:52;;;;;;;8.70;1.60;;;23.70;92.90;;;;;;5806584;40;20354;-78
2021/06/20 13:20:54;;;;;;;6.35;1.90;;;23.70;93.00;;;;;;5802703;40;20052;-80
2021/06/20 13:24:56;;;;;;;9.63;2.03;;;23.60;93.20;;;;;;5802975;40;20093;-78
2021/06/20 13:28:58;;;;;;;4.53;1.88;;;23.60;93.00;;;;;;5809217;40;20051;-77
2021/06/20 13:33:01;;;;;;;6.47;1.50;;;23.60;93.50;;;;;;5798012;40;20184;-77
2021/06/20 13:37:05;;;;;;;10.02;1.73;;;23.30;93.30;;;;;;5806675;40;20119;-80
2021/06/20 13:41:07;;;;;;;8.40;1.67;;;23.10;93.10;;;;;;5810422;40;20550;-80
2021/06/20 13:45:12;;;;;;;7.35;1.80;;;22.20;93.00;;;;;;5807038;40;20044;-80
2021/06/20 13:49:13;;;;;;;8.95;1.92;;;23.00;93.40;;;;;;5811310;40;20138;-79
2021/06/20 13:53:15;;;;;;;10.40;1.88;;;22.40;93.40;;;;;;5807362;40;20056;-79
2021/06/20 13:57:22;;;;;;;9.65;1.65;;;22.90;93.60;;;;;;5817587;40;20173;-80
2021/06/20 14:01:24;;;;;;;9.32;1.80;;;23.10;93.50;;;;;;5815124;40;20060;-74
2021/06/20 14:05:28;;;;;;;6.78;2.05;;;23.50;93.80;;;;;;5803170;40;20051;-79
2021/06/20 14:09:30;;;;;;;5.90;1.50;;;22.70;93.20;;;;;;5803338;40;20405;-77
2021/06/20 14:13:32;;;;;;;8.77;1.80;;;22.40;93.20;;;;;;5806222;40;20075;-78
2021/06/20 14:17:34;;;;;;;7.35;1.95;;;22.20;93.40;;;;;;5808832;40;20051;-79
2021/06/20 14:21:36;;;;;;;8.77;2.03;;;22.00;93.40;;;;;;5806375;40;20187;-78
2021/06/20 14:25:38;;;;;;;6.93;1.40;;;21.80;93.50;;;;;;5800277;40;20103;-78
2021/06/20 14:29:40;;;;;;;;;;;21.70;93.90;;;;;;5804110;40;20407;-78
2021/06/20 14:33:42;;;;;;;6.80;1.58;;;21.40;93.70;;;;;;5801919;40;19939;-78
2021/06/20 14:37:44;;;;;;;10.07;1.80;;;20.20;93.80;;;;;;5801776;40;20128;-77
2021/06/20 14:41:46;;;;;;;9.38;2.13;;;21.20;94.10;;;;;;5804428;40;20060;-79
2021/06/20 14:45:47;;;;;;;;;;;21.20;94.00;;;;;;5806517;40;20369;-79
2021/06/20 14:49:49;;;;;;;5.45;1.38;;;21.00;94.60;;;;;;5807539;40;19943;-79
2021/06/20 14:53:51;;;;;;;7.55;1.58;;;21.00;94.30;;;;;;5804041;40;20066;-78
2021/06/20 14:57:53;;;;;;;10.20;2.17;;;20.90;94.20;;;;;;5800829;40;20538;-75
2021/06/20 15:01:55;;;;;;;10.45;1.98;;;20.60;94.10;;;;;;5800243;40;20064;-78
2021/06/20 15:05:58;;;;;;;8.50;1.70;;;21.80;94.60;;;;;;5803644;40;20096;-78
2021/06/20 15:10:00;;;;;;;7.70;1.33;;;20.80;93.90;;;;;;5804083;40;20578;-79
2021/06/20 15:14:02;;;;;;;6.68;1.02;;;21.00;94.00;;;;;;5806536;40;20401;-78
2021/06/20 15:18:04;;;;;;;6.57;1.10;;;20.50;94.20;;;;;;5809222;40;20037;-77
2021/06/20 15:22:06;;;;;;;5.35;1.10;;;20.60;94.20;;;;;;5808445;40;20064;-78
2021/06/20 15:26:08;;;;;;;;;;;20.60;94.10;;;;;;5805662;40;20394;-79
2021/06/20 15:30:12;;;;;;;4.65;1.00;;;20.50;94.30;;;;;;5808597;40;20065;-80
2021/06/20 15:34:14;;;;;;;7.22;1.20;;;20.40;94.20;;;;;;5802249;40;20070;-77
2021/06/20 15:38:17;;;;;;;5.05;1.30;;;20.30;94.40;;;;;;5800214;40;20443;-76
2021/06/20 15:42:19;;;;;;;6.97;1.55;;;20.20;94.30;;;;;;5798071;40;20056;-78
2021/06/20 15:46:24;;;;;;;;;;;20.20;94.20;;;;;;5800578;40;20390;-78
2021/06/20 15:50:29;;;;;;;4.55;1.38;;;20.20;93.80;;;;;;5789476;40;19976;-75
2021/06/20 15:54:31;;;;;;;5.13;0.95;;;20.10;93.80;;;;;;5795465;40;20136;-76
2021/06/20 15:58:33;;;;;;;;;;;20.00;93.80;;;;;;5794597;40;20050;-78
2021/06/20 16:02:36;;;;;;;5.63;1.20;;;19.70;93.80;;;;;;5794890;40;19947;-78
2021/06/20 16:06:38;;;;;;;7.05;1.00;;;19.80;94.10;;;;;;5799104;40;20044;-82
2021/06/20 16:10:40;;;;;;;;;;;19.90;94.10;;;;;;5799598;40;20084;-81
2021/06/20 16:14:41;;;;;;;4.38;0.77;;;19.70;94.50;;;;;;5798050;40;19991;-81
2021/06/20 16:18:43;;;;;;;3.72;0.90;;;21.10;94.40;;;;;;5797118;40;20060;-80
2021/06/20 16:22:46;;;;;;;4.43;1.05;;;19.00;93.90;;;;;;5796985;40;20064;-80
2021/06/20 16:26:48;;;;;;;5.60;0.90;;;19.60;94.20;;;;;;5796047;40;20421;-77
2021/06/20 16:30:49;;;;;;;;;;;20.10;93.70;;;;;;5796615;40;20352;-78
2021/06/20 16:34:56;;;;;;;6.50;0.95;;;19.80;93.90;;;;;;5798649;40;19964;-78
2021/06/20 16:38:58;;;;;;;3.05;0.90;;;21.50;94.40;;;;;;5802638;40;20680;-77
2021/06/20 16:42:59;;;;;;;;;;;18.80;93.80;;;;;;5797866;40;20472;-75
2021/06/20 16:47:01;;;;;;;5.00;0.70;;;19.70;93.40;;;;;;5799851;40;19942;-77
2021/06/20 16:51:04;;;;;;;3.65;0.90;;;19.60;93.80;;;;;;5800338;40;20063;-78
2021/06/20 16:55:07;;;;;;;2.95;0.88;;;19.50;93.80;;;;;;5800160;40;20060;-76
2021/06/20 16:59:09;;;;;;;3.40;0.73;;;19.50;94.00;;;;;;5795685;40;20439;-77
2021/06/20 17:03:11;;;;;;;5.45;0.82;;;18.90;93.90;;;;;;5799140;40;20425;-78
2021/06/20 17:07:13;;;;;;;;;;;19.60;94.30;;;;;;5801519;40;20413;-77
2021/06/20 17:11:15;;;;;;;7.50;1.30;;;19.80;94.50;;;;;;5794869;40;20201;-78
2021/06/20 17:15:18;;;;;;;5.97;0.90;;;19.30;94.20;;;;;;5798878;40;20056;-78
2021/06/20 17:19:20;;;;;;;6.85;1.17;;;19.30;93.90;;;;;;5800276;40;20425;-78
2021/06/20 17:23:22;;;;;;;5.40;1.00;;;19.40;94.00;;;;;;5798570;40;20116;-78
2021/06/20 17:27:23;;;;;;;;;;;19.20;94.00;;;;;;5802079;40;20118;-79
2021/06/20 17:31:26;;;;;;;4.28;1.23;;;19.20;93.80;;;;;;5801342;40;19935;-79
2021/06/20 17:35:31;;;;;;;4.07;0.90;;;19.20;94.10;;;;;;5799634;40;20063;-78
2021/06/20 17:39:33;;;;;;;6.13;1.05;;;19.00;94.10;;;;;;5799031;40;20505;-77
2021/06/20 17:43:36;;;;;;;4.03;1.27;;;18.50;94.10;;;;;;5798194;40;20065;-78
2021/06/20 17:47:38;;;;;;;4.88;1.08;;;18.80;94.20;;;;;;5799075;40;20060;-77
2021/06/20 17:51:40;;;;;;;;;;;18.80;94.30;;;;;;5800304;40;20056;-76
2021/06/20 17:55:42;;;;;;;5.55;1.00;;;18.60;94.50;;;;;;5800098;40;20288;-76
2021/06/20 17:59:43;;;;;;;;;;;18.60;94.30;;;;;;5798125;40;20079;-78
2021/06/20 18:03:45;;;;;;;4.15;1.15;;;18.60;94.30;;;;;;5785098;40;19955;-77
2021/06/20 18:07:49;;;;;;;4.75;1.20;;;18.60;94.40;;;;;;5797753;40;20052;-78
2021/06/20 18:11:50;;;;;;;4.03;1.40;;;18.50;94.40;;;;;;5792624;40;20075;-78
2021/06/20 18:15:52;;;;;;;5.38;1.17;;;18.50;94.30;;;;;;5797474;40;20564;-79
2021/06/20 18:19:54;;;;;;;;;;;17.50;94.20;;;;;;5801656;40;20078;-78
2021/06/20 18:23:56;;;;;;;6.82;1.25;;;17.80;94.20;;;;;;5789284;40;20346;-77
2021/06/20 18:27:58;;;;;;;;;;;17.30;94.30;;;;;;5799309;40;20051;-76
2021/06/20 18:32:00;;;;;;;5.90;1.10;;;19.10;94.80;;;;;;5799154;40;20041;-77
2021/06/20 18:36:02;;;;;;;5.80;1.35;;;18.70;94.80;;;;;;5798507;40;20052;-78
2021/06/20 18:40:06;;;;;;;7.63;1.17;;;18.00;94.60;;;;;;5795456;40;20068;-77
2021/06/20 18:44:08;;;;;;;3.78;1.17;;;18.00;94.50;;;;;;5799406;40;20048;-79
2021/06/20 18:48:10;;;;;;;5.32;1.25;;;17.40;94.50;;;;;;5799865;40;20080;-78
2021/06/20 18:52:12;;;;;;;3.33;0.90;;;18.00;94.60;;;;;;5808853;40;20048;-78
2021/06/20 18:56:18;;;;;;;;;;;17.40;94.40;;;;;;5797147;40;20396;-81
2021/06/20 19:00:21;;;;;;;2.53;0.80;;;17.20;94.40;;;;;;5799663;40;19939;-82
2021/06/20 19:04:23;;;;;;;8.70;1.02;;;17.80;94.50;;;;;;5797228;40;20044;-81
2021/06/20 19:08:25;;;;;;;;;;;17.90;94.30;;;;;;5801804;40;20044;-81
2021/06/20 19:12:30;;;;;;;5.45;1.00;;;17.60;94.60;;;;;;5803761;40;19936;-81
2021/06/20 19:16:32;;;;;;;5.43;0.98;;;17.70;94.50;;;;;;5795638;40;20081;-80
2021/06/20 19:20:34;;;;;;;4.07;1.10;;;16.90;94.30;;;;;;5801022;40;20489;-82
2021/06/20 19:24:39;;;;;;;5.95;1.15;;;17.70;94.60;;;;;;5798133;40;20048;-81
2021/06/20 19:28:41;;;;;;;3.53;1.00;;;17.50;94.50;;;;;;5799586;40;20053;-82
2021/06/20 19:32:44;;;;;;;4.43;1.20;;;17.50;94.50;;;;;;5800745;40;20086;-80
2021/06/20 19:36:46;;;;;;;5.13;0.95;;;17.50;94.60;;;;;;5798434;40;20053;-82
2021/06/20 19:40:49;;;;;;;7.13;1.10;;;17.50;94.60;;;;;;5800656;40;20404;-82
2021/06/20 19:44:51;;;;;;;;;;;17.50;94.60;;;;;;5799979;40;20902;-83
2021/06/20 19:48:55;;;;;;;6.07;1.05;;;17.40;94.40;;;;;;5800999;40;19939;-80
2021/06/20 19:52:57;;;;;;;7.93;1.38;;;17.40;94.60;;;;;;5799819;40;20052;-79
2021/06/20 19:57:00;;;;;;;5.88;1.02;;;16.50;94.40;;;;;;5797918;40;20060;-84
2021/06/20 20:01:02;;;;;;;6.32;1.30;;;17.40;94.70;;;;;;5801559;40;20061;-80
2021/06/20 20:05:09;;;;;;;4.97;1.00;;;17.20;94.50;;;;;;5798350;40;20059;-85
2021/06/20 20:09:11;;;;;;;4.00;1.10;;;17.20;94.70;;;;;;5797575;40;20097;-80
2021/06/20 20:13:14;;;;;;;9.13;1.35;;;17.20;94.80;;;;;;5800841;40;20060;-82
2021/06/20 20:17:16;;;;;;;4.20;1.30;;;17.00;94.70;;;;;;5804354;40;20078;-82
2021/06/20 20:21:18;;;;;;;4.70;1.55;;;16.30;94.70;;;;;;5799386;40;20059;-81
2021/06/20 20:25:24;;;;;;;4.03;1.10;;;17.70;95.00;;;;;;5803215;40;20363;-80
2021/06/20 20:29:26;;;;;;;5.88;1.10;;;16.80;95.00;;;;;;5798232;40;20047;-80
2021/06/20 20:33:28;;;;;;;4.25;1.10;;;16.80;94.80;;;;;;5799421;40;20073;-79
2021/06/20 20:37:30;;;;;;;;;;;16.80;94.80;;;;;;5803081;40;20080;-78
2021/06/20 20:41:32;;;;;;;3.70;1.13;;;16.70;94.60;;;;;;5797151;40;20223;-77
2021/06/20 20:45:34;;;;;;;7.85;1.10;;;17.40;95.20;;;;;;5799685;40;20044;-78
2021/06/20 20:49:39;;;;;;;5.18;1.10;;;16.70;95.00;;;;;;5803732;40;20052;-78
2021/06/20 20:53:40;;;;;;;6.30;1.10;;;18.00;95.40;;;;;;5798061;40;20186;-77
2021/06/20 20:57:43;;;;;;;6.75;0.93;;;16.60;94.90;;;;;;5802092;40;20405;-79
2021/06/20 21:01:46;;;;;;;5.57;1.63;;;16.60;94.90;;;;;;5800342;40;20139;-78
2021/06/20 21:05:48;;;;;;;5.55;1.20;;;16.50;94.90;;;;;;5799761;40;20064;-77
2021/06/20 21:09:51;;;;;;;3.63;1.20;;;15.40;94.70;;;;;;5798757;40;20067;-78
2021/06/20 21:13:52;;;;;;;2.25;1.00;;;16.40;95.10;;;;;;5801870;40;20516;-84